Urbana, Illinois
Current Conditions -  °F | °C
As of 11:08 AM on Saturday 25 Oct 2014 (Local Time) from KCMI Reporting Station
Haze Haze  
Wind Chill: 60°   Ceiling: 400
Heat Index: 60°   Visibility: 4mi
Dew Point: 57°   Wind: 10mph
Humidity: 90%   Direction: 270°W
Pressure: 30.01"   Gusts: NA
Location:  40.12°N, 88.2°W
Report Text: KCMI 251608Z 27009KT 4SM BR BKN004 16/14 A3001 RMK AO2 T01560139 $
Loading
Personal Weather Stations






























Interactive Weather Map
Tropical Storm Tracking
New forecast layout! Learn more

10-Day Weather Forecast

Advertisements
Track Severe Weather on mobile